Time;durP1;ratioP1;P1;durP2;ratioP2;P2;SDS_P1;SDS_P2;PMS_P1;PMS_P2;Temp;Humidity;BMP_temperature;BMP_pressure;BME280_temperature;BME280_humidity;BME280_pressure;Samples;Min_cycle;Max_cycle;Signal;HPM_P1;HPM_P2
2023/06/19 00:01:59;;;;;;;9.80;6.20;;;18.00;99.90;;;;;;5050755;28;20040;-73
2023/06/19 00:04:26;;;;;;;12.05;6.43;;;18.00;99.90;;;;;;5050153;28;20029;-75
2023/06/19 00:06:52;;;;;;;12.88;6.25;;;17.90;99.90;;;;;;5050491;28;20078;-73
2023/06/19 00:09:19;;;;;;;9.10;6.15;;;17.90;99.90;;;;;;5051487;28;20462;-73
2023/06/19 00:11:44;;;;;;;10.10;6.82;;;18.00;99.90;;;;;;5053882;28;20561;-73
2023/06/19 00:14:10;;;;;;;14.98;6.75;;;17.90;99.90;;;;;;5054363;28;20128;-73
2023/06/19 00:16:36;;;;;;;8.82;6.07;;;17.90;99.90;;;;;;5053803;28;20090;-73
2023/06/19 00:19:03;;;;;;;10.88;6.22;;;17.90;99.90;;;;;;5054118;28;20104;-73
2023/06/19 00:21:29;;;;;;;8.93;5.90;;;17.90;99.90;;;;;;5053622;28;20037;-74
2023/06/19 00:23:55;;;;;;;8.88;5.55;;;17.90;99.90;;;;;;5054342;28;20021;-73
2023/06/19 00:26:25;;;;;;;10.90;6.30;;;17.80;99.90;;;;;;5054499;28;20071;-73
2023/06/19 00:28:51;;;;;;;8.27;5.35;;;17.80;99.90;;;;;;5053411;28;20072;-73
2023/06/19 00:31:18;;;;;;;8.05;5.95;;;17.80;99.90;;;;;;5052913;28;20029;-73
2023/06/19 00:33:47;;;;;;;7.13;5.13;;;17.80;99.90;;;;;;5053828;28;20119;-73
2023/06/19 00:36:16;;;;;;;6.65;5.20;;;17.70;99.90;;;;;;5054056;28;20059;-73
2023/06/19 00:38:42;;;;;;;8.40;5.18;;;17.80;99.90;;;;;;5053932;28;20442;-73
2023/06/19 00:41:08;;;;;;;12.15;6.32;;;17.80;99.90;;;;;;5054114;28;20546;-73
2023/06/19 00:43:34;;;;;;;11.60;6.07;;;17.80;99.90;;;;;;5053147;28;20025;-73
2023/06/19 00:46:01;;;;;;;9.95;6.40;;;17.80;99.90;;;;;;5053913;28;20025;-73
2023/06/19 00:48:28;;;;;;;10.32;6.00;;;17.80;99.90;;;;;;5054308;28;20088;-74
2023/06/19 00:50:55;;;;;;;10.45;5.75;;;17.70;99.90;;;;;;5053643;28;20101;-73
2023/06/19 00:53:22;;;;;;;7.90;5.45;;;17.80;99.90;;;;;;5054610;28;20053;-73
2023/06/19 00:55:48;;;;;;;9.32;5.65;;;17.70;99.90;;;;;;5053324;28;20067;-73
2023/06/19 00:58:15;;;;;;;9.45;6.18;;;17.70;99.90;;;;;;5053962;28;20040;-74
2023/06/19 01:00:41;;;;;;;14.00;6.28;;;17.80;99.90;;;;;;5053557;28;20033;-73
2023/06/19 01:03:07;;;;;;;7.53;4.95;;;17.70;99.90;;;;;;5053904;28;20178;-73
2023/06/19 01:05:33;;;;;;;7.70;5.60;;;17.70;99.90;;;;;;5052039;28;20033;-73
2023/06/19 01:08:33;;;;;;;7.35;5.55;;;17.70;99.90;;;;;;5053885;28;20029;-73
2023/06/19 01:11:01;;;;;;;7.00;5.38;;;17.70;99.90;;;;;;5053886;28;20033;-73
2023/06/19 01:13:45;;;;;;;12.80;5.55;;;17.60;99.90;;;;;;5053540;28;20029;-73
2023/06/19 01:16:12;;;;;;;8.05;5.13;;;17.60;99.90;;;;;;5053779;28;20074;-73
2023/06/19 01:18:38;;;;;;;9.57;5.47;;;17.60;99.90;;;;;;5053113;28;20024;-74
2023/06/19 01:21:15;;;;;;;9.48;5.65;;;17.60;99.90;;;;;;5053256;28;20029;-73
2023/06/19 01:23:41;;;;;;;9.88;5.90;;;17.60;99.90;;;;;;5052926;28;20126;-73
2023/06/19 01:26:07;;;;;;;13.63;6.13;;;17.50;99.90;;;;;;5053112;28;20490;-73
2023/06/19 01:28:37;;;;;;;8.75;5.40;;;17.50;99.90;;;;;;5052872;28;20063;-74
2023/06/19 01:31:08;;;;;;;8.32;5.10;;;17.40;99.90;;;;;;5053181;28;20389;-73
2023/06/19 01:33:37;;;;;;;9.02;4.82;;;17.50;99.90;;;;;;5052632;28;20036;-73
2023/06/19 01:36:05;;;;;;;10.80;5.57;;;17.40;99.90;;;;;;5053395;28;20036;-73
2023/06/19 01:38:31;;;;;;;8.50;5.40;;;17.40;99.90;;;;;;5052971;28;20056;-74
2023/06/19 01:40:59;;;;;;;9.25;5.30;;;17.40;99.90;;;;;;5052687;28;20040;-73
2023/06/19 01:43:26;;;;;;;9.63;5.93;;;17.40;99.90;;;;;;5052990;28;20112;-72
2023/06/19 01:45:52;;;;;;;8.48;4.85;;;17.40;99.90;;;;;;5052257;28;20069;-73
2023/06/19 01:48:17;;;;;;;11.40;5.65;;;17.50;99.90;;;;;;5052693;28;20098;-73
2023/06/19 01:50:48;;;;;;;7.38;4.85;;;17.50;99.90;;;;;;5051871;28;20025;-73
2023/06/19 01:53:14;;;;;;;12.43;5.22;;;17.50;99.90;;;;;;5052588;28;20392;-73
2023/06/19 01:55:40;;;;;;;9.57;5.10;;;17.50;99.90;;;;;;5051870;28;20385;-73
2023/06/19 01:58:06;;;;;;;11.27;5.18;;;17.50;99.90;;;;;;5052711;28;20021;-73
2023/06/19 02:00:35;;;;;;;7.78;4.90;;;17.40;99.90;;;;;;5052414;28;20033;-75
2023/06/19 02:03:01;;;;;;;7.35;4.53;;;17.40;99.90;;;;;;5052623;28;20043;-73
2023/06/19 02:05:27;;;;;;;11.63;5.50;;;17.30;99.90;;;;;;5052846;28;20041;-73
2023/06/19 02:07:53;;;;;;;10.77;5.55;;;17.30;99.90;;;;;;5052138;28;20032;-72
2023/06/19 02:10:18;;;;;;;10.73;5.43;;;17.30;99.90;;;;;;5052166;28;20489;-73
2023/06/19 02:12:44;;;;;;;9.15;5.05;;;17.20;99.90;;;;;;5052177;28;20406;-73
2023/06/19 02:15:10;;;;;;;10.25;5.68;;;17.10;99.90;;;;;;5051106;28;20029;-73
2023/06/19 02:17:36;;;;;;;10.85;5.75;;;17.20;99.90;;;;;;5052381;28;20112;-74
2023/06/19 02:20:02;;;;;;;10.10;5.15;;;17.10;99.90;;;;;;5052694;28;20128;-73
2023/06/19 02:22:28;;;;;;;11.15;5.65;;;17.00;99.90;;;;;;5051285;28;20480;-73
2023/06/19 02:24:53;;;;;;;11.60;5.88;;;17.00;99.90;;;;;;5051712;28;20096;-73
2023/06/19 02:27:19;;;;;;;10.05;5.53;;;17.00;99.90;;;;;;5052017;28;20053;-73
2023/06/19 02:29:45;;;;;;;12.75;5.53;;;17.00;99.90;;;;;;5049924;28;20128;-73
2023/06/19 02:32:11;;;;;;;8.65;4.97;;;17.00;99.90;;;;;;5051269;28;20458;-73
2023/06/19 02:34:36;;;;;;;12.25;5.43;;;16.90;99.90;;;;;;5050972;28;20033;-75
2023/06/19 02:37:02;;;;;;;9.25;5.60;;;16.90;99.90;;;;;;5051310;28;20103;-73
2023/06/19 02:39:29;;;;;;;7.93;5.20;;;16.90;99.90;;;;;;5051726;28;20094;-73
2023/06/19 02:41:55;;;;;;;10.48;5.22;;;16.90;99.90;;;;;;5051355;28;20199;-73
2023/06/19 02:44:20;;;;;;;8.43;5.45;;;16.90;99.90;;;;;;5051340;28;20474;-73
2023/06/19 02:46:46;;;;;;;7.78;5.10;;;16.90;99.90;;;;;;5050935;28;20045;-73
2023/06/19 02:49:12;;;;;;;9.10;5.68;;;16.80;99.90;;;;;;5051096;28;20364;-73
2023/06/19 02:51:37;;;;;;;6.53;5.18;;;16.80;99.90;;;;;;5050879;28;20148;-75
2023/06/19 02:54:03;;;;;;;7.43;4.68;;;16.80;99.90;;;;;;5051247;28;20362;-73
2023/06/19 02:56:29;;;;;;;9.40;5.00;;;16.80;99.90;;;;;;5051429;28;20024;-73
2023/06/19 02:58:54;;;;;;;10.82;5.55;;;16.80;99.90;;;;;;5050539;28;20028;-73
2023/06/19 03:01:20;;;;;;;7.95;4.95;;;16.80;99.90;;;;;;5051592;28;20484;-72
2023/06/19 03:03:47;;;;;;;7.65;5.10;;;16.80;99.90;;;;;;5049466;28;20125;-72
2023/06/19 03:06:13;;;;;;;10.02;5.55;;;16.80;99.90;;;;;;5051285;28;20116;-72
2023/06/19 03:08:39;;;;;;;10.35;4.95;;;16.70;99.90;;;;;;5050879;28;20057;-74
2023/06/19 03:11:05;;;;;;;6.90;4.97;;;16.70;99.90;;;;;;5051058;28;20509;-72
2023/06/19 03:13:47;;;;;;;7.47;5.32;;;16.70;99.90;;;;;;5049839;28;20029;-72
2023/06/19 03:16:14;;;;;;;9.30;5.00;;;16.60;99.90;;;;;;5051182;28;20036;-73
2023/06/19 03:18:41;;;;;;;7.07;4.80;;;16.60;99.90;;;;;;5049161;28;20061;-73
2023/06/19 03:21:07;;;;;;;12.10;5.25;;;16.60;99.90;;;;;;5050880;28;20171;-71
2023/06/19 03:23:32;;;;;;;10.25;5.57;;;16.60;99.90;;;;;;5049874;28;20048;-73
2023/06/19 03:25:58;;;;;;;10.77;5.43;;;16.60;99.90;;;;;;5050393;28;20028;-71
2023/06/19 03:28:24;;;;;;;15.23;5.57;;;16.60;99.90;;;;;;5051002;28;20111;-71
2023/06/19 03:30:50;;;;;;;8.00;5.30;;;16.50;99.90;;;;;;5049964;28;20116;-72
2023/06/19 03:33:16;;;;;;;10.63;5.38;;;16.50;99.90;;;;;;5050651;28;20033;-72
2023/06/19 03:35:42;;;;;;;8.30;5.35;;;16.50;99.90;;;;;;5050265;28;20025;-72
2023/06/19 03:38:08;;;;;;;8.45;5.57;;;16.50;99.90;;;;;;5051129;28;20028;-72
2023/06/19 03:40:34;;;;;;;14.32;6.70;;;16.50;99.90;;;;;;5051144;28;20044;-72
2023/06/19 03:43:00;;;;;;;11.05;5.47;;;16.50;99.90;;;;;;5050360;28;20213;-72
2023/06/19 03:45:25;;;;;;;11.65;6.40;;;16.50;99.90;;;;;;5050022;28;20138;-72
2023/06/19 03:47:51;;;;;;;12.93;5.82;;;16.50;99.90;;;;;;5050437;28;20033;-72
2023/06/19 03:50:17;;;;;;;11.27;6.15;;;16.40;99.90;;;;;;5050697;28;20058;-73
2023/06/19 03:52:42;;;;;;;10.25;5.32;;;16.40;99.90;;;;;;5050231;28;20454;-72
2023/06/19 03:55:08;;;;;;;11.82;5.57;;;16.40;99.90;;;;;;5050617;28;20051;-72
2023/06/19 03:57:34;;;;;;;13.27;5.93;;;16.40;99.90;;;;;;5050659;28;20529;-72
2023/06/19 04:00:00;;;;;;;9.85;5.47;;;16.30;99.90;;;;;;5050574;28;20735;-71
2023/06/19 04:02:26;;;;;;;12.80;5.60;;;16.30;99.90;;;;;;5049255;28;20544;-71
2023/06/19 04:04:51;;;;;;;9.10;5.32;;;16.30;99.90;;;;;;5050049;28;20035;-72
2023/06/19 04:07:17;;;;;;;15.52;6.57;;;16.30;99.90;;;;;;5050690;28;20394;-72
2023/06/19 04:09:43;;;;;;;12.02;5.40;;;16.30;99.90;;;;;;5049789;28;20410;-73
2023/06/19 04:12:09;;;;;;;8.93;5.45;;;16.30;99.90;;;;;;5050355;28;20040;-72
2023/06/19 04:14:34;;;;;;;8.88;4.93;;;16.40;99.90;;;;;;5050139;28;20028;-72
2023/06/19 04:17:00;;;;;;;11.98;4.85;;;16.40;99.90;;;;;;5049668;28;20193;-72
2023/06/19 04:19:26;;;;;;;10.93;5.53;;;16.40;99.90;;;;;;5050343;28;20029;-71
2023/06/19 04:21:52;;;;;;;11.93;5.80;;;16.40;99.90;;;;;;5049875;28;20044;-72
2023/06/19 04:24:17;;;;;;;11.60;5.25;;;16.30;99.90;;;;;;5050268;28;20057;-72
2023/06/19 04:26:43;;;;;;;12.93;5.35;;;16.40;99.90;;;;;;5049437;28;20216;-74
2023/06/19 04:29:16;;;;;;;10.65;5.60;;;16.40;99.90;;;;;;5050430;28;20404;-72
2023/06/19 04:31:46;;;;;;;9.70;4.90;;;16.30;99.90;;;;;;5049754;28;20112;-74
2023/06/19 04:34:21;;;;;;;7.80;4.60;;;16.30;99.90;;;;;;5050105;28;20467;-72
2023/06/19 04:36:50;;;;;;;8.90;5.30;;;16.30;99.90;;;;;;5048385;28;20036;-72
2023/06/19 04:39:16;;;;;;;10.02;5.45;;;16.30;99.90;;;;;;5050074;28;20048;-72
2023/06/19 04:41:44;;;;;;;11.13;5.25;;;16.30;99.90;;;;;;5050209;28;20064;-72
2023/06/19 04:44:12;;;;;;;7.88;4.28;;;16.30;99.90;;;;;;5050445;28;20052;-72
2023/06/19 04:46:38;;;;;;;10.45;5.40;;;16.30;99.90;;;;;;5048786;28;20049;-71
2023/06/19 04:49:05;;;;;;;9.30;4.72;;;16.30;99.90;;;;;;5049630;28;20100;-72
2023/06/19 04:51:32;;;;;;;9.65;5.13;;;16.40;99.90;;;;;;5050090;28;20044;-72
2023/06/19 04:53:59;;;;;;;7.32;4.50;;;16.40;99.90;;;;;;5049350;28;20037;-72
2023/06/19 04:56:24;;;;;;;6.07;4.40;;;16.40;99.90;;;;;;5052526;28;20029;-72
2023/06/19 04:58:51;;;;;;;5.40;4.07;;;16.50;99.90;;;;;;5053046;28;20025;-73
2023/06/19 05:01:17;;;;;;;10.18;4.72;;;16.50;99.90;;;;;;5053593;28;20033;-71
2023/06/19 05:03:45;;;;;;;9.45;4.40;;;16.50;99.90;;;;;;5052204;28;20025;-73
2023/06/19 05:06:11;;;;;;;10.07;4.82;;;16.50;99.90;;;;;;5053708;28;20592;-72
2023/06/19 05:08:37;;;;;;;7.00;4.35;;;16.50;99.90;;;;;;5053750;28;20136;-72
2023/06/19 05:11:03;;;;;;;11.70;4.30;;;16.50;99.90;;;;;;5052686;28;20071;-72
2023/06/19 05:13:29;;;;;;;11.45;4.70;;;16.50;99.90;;;;;;5051931;28;20025;-72
2023/06/19 05:15:55;;;;;;;8.88;4.57;;;16.50;99.90;;;;;;5052644;28;20021;-72
2023/06/19 05:18:21;;;;;;;8.20;4.40;;;16.50;99.90;;;;;;5053278;28;20037;-72
2023/06/19 05:20:47;;;;;;;10.30;4.78;;;16.60;99.90;;;;;;5053015;28;20032;-73
2023/06/19 05:23:13;;;;;;;6.35;4.38;;;16.70;99.90;;;;;;5053292;28;20138;-72
2023/06/19 05:25:39;;;;;;;7.68;4.15;;;16.70;99.90;;;;;;5051650;28;20025;-72
2023/06/19 05:28:05;;;;;;;8.77;4.50;;;16.80;99.90;;;;;;5052243;28;20128;-72
2023/06/19 05:30:30;;;;;;;8.23;4.30;;;16.80;99.90;;;;;;5052641;28;20041;-72
2023/06/19 05:32:56;;;;;;;9.60;4.22;;;16.80;99.90;;;;;;5052344;28;20122;-72
2023/06/19 05:35:22;;;;;;;10.15;4.45;;;16.80;99.90;;;;;;5052924;28;20120;-71
2023/06/19 05:37:48;;;;;;;6.20;4.13;;;16.80;99.90;;;;;;5052742;28;20126;-74
2023/06/19 05:40:14;;;;;;;9.25;4.63;;;16.90;99.90;;;;;;5051185;28;20033;-72
2023/06/19 05:42:40;;;;;;;9.82;4.07;;;17.00;99.90;;;;;;5052817;28;20028;-72
2023/06/19 05:45:07;;;;;;;9.27;3.72;;;17.20;99.90;;;;;;5052194;28;20200;-72
2023/06/19 05:47:33;;;;;;;6.38;3.17;;;17.40;99.90;;;;;;5052724;28;20079;-72
2023/06/19 05:49:59;;;;;;;6.05;3.30;;;17.50;99.90;;;;;;5052063;28;20480;-72
2023/06/19 05:52:24;;;;;;;5.75;3.47;;;17.70;99.90;;;;;;5051544;28;20120;-72
2023/06/19 05:54:51;;;;;;;5.97;3.72;;;17.80;99.90;;;;;;5051783;28;20112;-73
2023/06/19 05:57:20;;;;;;;7.28;3.40;;;18.00;99.90;;;;;;5052767;28;20029;-72
2023/06/19 05:59:46;;;;;;;10.80;3.55;;;18.10;99.90;;;;;;5052566;28;20037;-72
2023/06/19 06:02:12;;;;;;;7.10;3.83;;;18.30;99.90;;;;;;5052420;28;20032;-73
2023/06/19 06:04:38;;;;;;;6.60;3.55;;;18.50;99.90;;;;;;5051781;28;20414;-72
2023/06/19 06:07:04;;;;;;;9.13;3.25;;;18.50;99.90;;;;;;5050953;28;20432;-72
2023/06/19 06:09:30;;;;;;;4.70;2.80;;;18.60;99.90;;;;;;5052534;28;20447;-73
2023/06/19 06:11:56;;;;;;;5.97;2.53;;;18.60;99.90;;;;;;5051798;28;20029;-73
2023/06/19 06:14:21;;;;;;;6.47;3.05;;;18.70;99.90;;;;;;5051860;28;20407;-72
2023/06/19 06:16:47;;;;;;;7.90;3.22;;;18.80;99.90;;;;;;5051927;28;20028;-72
2023/06/19 06:19:13;;;;;;;6.13;2.95;;;18.90;99.90;;;;;;5051037;28;20048;-72
2023/06/19 06:21:39;;;;;;;6.13;3.25;;;19.00;99.90;;;;;;5050590;28;20029;-72
2023/06/19 06:24:05;;;;;;;6.90;3.05;;;19.00;99.90;;;;;;5051036;28;20037;-72
2023/06/19 06:26:31;;;;;;;4.95;2.40;;;19.00;99.90;;;;;;5051658;28;20021;-72
2023/06/19 06:28:56;;;;;;;5.65;2.78;;;19.10;99.90;;;;;;5051232;28;20040;-73
2023/06/19 06:31:22;;;;;;;7.68;3.20;;;19.20;99.90;;;;;;5051413;28;20037;-72
2023/06/19 06:33:48;;;;;;;10.10;2.80;;;19.20;99.90;;;;;;5051105;28;20028;-72
2023/06/19 06:36:18;;;;;;;6.40;2.90;;;19.30;99.90;;;;;;5051441;28;20051;-73
2023/06/19 06:38:44;;;;;;;5.72;3.05;;;19.30;99.90;;;;;;5050489;28;20025;-72
2023/06/19 06:41:09;;;;;;;5.88;2.40;;;19.30;99.90;;;;;;5051339;28;20545;-72
2023/06/19 06:43:35;;;;;;;5.70;2.65;;;19.30;99.90;;;;;;5051832;28;20374;-72
2023/06/19 06:46:01;;;;;;;7.57;2.85;;;19.40;99.90;;;;;;5051637;28;20021;-73
2023/06/19 06:48:27;;;;;;;8.00;2.67;;;19.30;99.90;;;;;;5052226;28;20036;-72
2023/06/19 06:50:58;;;;;;;4.43;2.83;;;19.40;99.90;;;;;;5051401;28;20060;-74
2023/06/19 06:53:25;;;;;;;6.30;2.60;;;19.50;99.90;;;;;;5051707;28;20083;-71
2023/06/19 06:55:52;;;;;;;3.20;2.10;;;19.50;99.90;;;;;;5051416;28;20040;-74
2023/06/19 06:58:18;;;;;;;7.47;2.45;;;19.60;99.90;;;;;;5051458;28;20124;-72
2023/06/19 07:00:45;;;;;;;4.75;2.65;;;19.70;99.90;;;;;;5051538;28;20126;-72
2023/06/19 07:03:10;;;;;;;5.78;2.42;;;19.70;99.90;;;;;;5051044;28;20041;-72
2023/06/19 07:05:36;;;;;;;4.43;2.47;;;19.80;99.90;;;;;;5051428;28;20188;-72
2023/06/19 07:08:03;;;;;;;6.70;2.72;;;19.90;99.90;;;;;;5051416;28;20025;-72
2023/06/19 07:10:30;;;;;;;5.07;2.22;;;19.80;99.90;;;;;;5050987;28;20033;-72
2023/06/19 07:12:56;;;;;;;4.18;2.17;;;19.90;99.90;;;;;;5050438;28;20029;-72
2023/06/19 07:15:21;;;;;;;5.65;2.40;;;20.00;99.90;;;;;;5051285;28;20032;-72
2023/06/19 07:17:47;;;;;;;7.28;2.45;;;20.10;99.90;;;;;;5050992;28;20061;-71
2023/06/19 07:20:13;;;;;;;5.18;2.20;;;20.20;99.90;;;;;;5050396;28;20092;-72
2023/06/19 07:22:40;;;;;;;5.47;2.10;;;20.30;99.90;;;;;;5051061;28;20028;-72
2023/06/19 07:25:06;;;;;;;4.93;2.10;;;20.40;99.90;;;;;;5050353;28;20383;-72
2023/06/19 07:27:32;;;;;;;4.93;2.15;;;20.50;99.90;;;;;;5051097;28;20067;-72
2023/06/19 07:29:58;;;;;;;2.83;2.00;;;20.50;99.90;;;;;;5051114;28;20052;-72
2023/06/19 07:32:23;;;;;;;5.53;2.67;;;20.70;99.90;;;;;;5051448;28;20443;-72
2023/06/19 07:34:49;;;;;;;5.97;2.33;;;20.70;99.90;;;;;;5051463;28;20100;-71
2023/06/19 07:37:17;;;;;;;3.13;2.40;;;20.70;99.90;;;;;;5049483;28;20473;-72
2023/06/19 07:39:49;;;;;;;9.57;2.33;;;20.60;99.90;;;;;;5051313;28;20047;-71
2023/06/19 07:42:16;;;;;;;6.88;2.60;;;20.50;99.90;;;;;;5050725;28;20032;-71
2023/06/19 07:44:42;;;;;;;6.68;2.28;;;20.60;99.90;;;;;;5051424;28;20079;-72
2023/06/19 07:47:08;;;;;;;4.50;1.80;;;20.60;99.90;;;;;;5050450;28;20327;-72
2023/06/19 07:49:34;;;;;;;6.53;2.67;;;20.80;99.90;;;;;;5051308;28;20025;-72
2023/06/19 07:52:00;;;;;;;4.47;2.08;;;20.80;99.90;;;;;;5050413;28;20033;-72
2023/06/19 07:54:26;;;;;;;4.57;2.05;;;20.80;99.90;;;;;;5051491;28;20051;-72
2023/06/19 07:56:52;;;;;;;3.97;2.00;;;20.80;99.90;;;;;;5051157;28;20047;-72
2023/06/19 07:59:18;;;;;;;3.28;1.95;;;20.80;99.90;;;;;;5050692;28;20035;-72
2023/06/19 08:01:44;;;;;;;4.50;2.10;;;20.90;99.90;;;;;;5051066;28;20207;-72
2023/06/19 08:04:10;;;;;;;5.38;2.25;;;21.20;99.90;;;;;;5050314;28;20048;-72
2023/06/19 08:06:36;;;;;;;5.55;2.35;;;21.20;99.90;;;;;;5051178;28;20458;-72
2023/06/19 08:09:02;;;;;;;5.25;2.10;;;21.40;99.90;;;;;;5050322;28;20026;-72
2023/06/19 08:11:28;;;;;;;3.50;2.28;;;21.40;99.90;;;;;;5049187;28;20467;-72
2023/06/19 08:13:55;;;;;;;6.57;1.80;;;21.50;99.90;;;;;;5050845;28;20036;-72
2023/06/19 08:16:20;;;;;;;5.10;2.10;;;21.50;99.90;;;;;;5050043;28;20087;-72
2023/06/19 08:18:46;;;;;;;3.92;2.08;;;21.50;99.90;;;;;;5050867;28;20036;-72
2023/06/19 08:21:13;;;;;;;5.03;2.17;;;21.50;99.90;;;;;;5050205;28;20032;-72
2023/06/19 08:23:40;;;;;;;7.07;2.20;;;21.50;99.90;;;;;;5051041;28;20021;-72
2023/06/19 08:26:07;;;;;;;5.55;2.10;;;21.60;99.90;;;;;;5050166;28;20076;-73
2023/06/19 08:28:33;;;;;;;4.88;2.10;;;21.70;99.90;;;;;;5050187;28;20056;-72
2023/06/19 08:30:59;;;;;;;4.30;1.70;;;21.60;99.90;;;;;;5052123;28;20032;-74
2023/06/19 08:33:25;;;;;;;3.13;2.00;;;21.50;99.90;;;;;;5054812;28;20040;-73
2023/06/19 08:35:51;;;;;;;5.35;2.47;;;21.30;99.90;;;;;;5054913;28;20021;-72
2023/06/19 08:38:16;;;;;;;4.88;1.92;;;21.30;99.90;;;;;;5054059;28;20033;-73
2023/06/19 08:40:45;;;;;;;2.97;1.92;;;21.10;99.90;;;;;;5053191;28;20111;-73
2023/06/19 08:43:11;;;;;;;3.65;2.20;;;21.10;99.90;;;;;;5054101;28;20025;-72
2023/06/19 08:45:37;;;;;;;4.85;1.90;;;21.20;99.90;;;;;;5054586;28;20046;-72
2023/06/19 08:48:03;;;;;;;4.18;2.00;;;21.20;99.90;;;;;;5053866;28;20319;-73
2023/06/19 08:50:33;;;;;;;4.70;1.90;;;21.30;99.90;;;;;;5054460;28;20025;-73
2023/06/19 08:52:59;;;;;;;5.43;2.00;;;21.30;99.90;;;;;;5054282;28;20029;-75
2023/06/19 08:55:25;;;;;;;4.63;1.83;;;21.40;99.90;;;;;;5054323;28;20027;-73
2023/06/19 08:57:52;;;;;;;3.17;1.90;;;21.60;99.90;;;;;;5054289;28;20039;-73
2023/06/19 09:00:26;;;;;;;2.47;1.60;;;21.70;99.90;;;;;;5053842;28;20028;-73
2023/06/19 09:02:58;;;;;;;4.00;2.30;;;21.70;99.90;;;;;;5052694;28;20533;-73
2023/06/19 09:05:25;;;;;;;3.70;1.80;;;21.90;99.90;;;;;;5055159;28;20021;-72
2023/06/19 09:07:57;;;;;;;5.22;2.20;;;22.00;99.90;;;;;;5052588;28;20029;-73
2023/06/19 09:10:26;;;;;;;4.63;2.10;;;22.10;99.90;;;;;;5053069;28;20041;-73
2023/06/19 09:13:00;;;;;;;2.53;1.95;;;22.00;99.90;;;;;;5053684;28;20433;-73
2023/06/19 09:15:35;;;;;;;3.88;1.75;;;21.90;99.90;;;;;;5052022;28;20055;-73
2023/06/19 09:18:04;;;;;;;6.10;2.15;;;21.70;99.90;;;;;;5053052;28;20021;-75
2023/06/19 09:20:30;;;;;;;3.15;1.70;;;21.70;99.90;;;;;;5053796;28;20025;-73
2023/06/19 09:22:56;;;;;;;4.93;1.77;;;21.60;99.90;;;;;;5053361;28;20112;-73
2023/06/19 09:25:23;;;;;;;3.58;1.95;;;21.50;99.90;;;;;;5052976;28;20079;-72
2023/06/19 09:27:49;;;;;;;2.83;1.65;;;21.40;99.90;;;;;;5051647;28;20045;-73
2023/06/19 09:30:16;;;;;;;7.07;1.90;;;21.40;99.90;;;;;;5053321;28;20059;-73
2023/06/19 09:32:41;;;;;;;4.13;1.85;;;21.60;99.90;;;;;;5053161;28;20056;-73
2023/06/19 09:35:07;;;;;;;3.53;1.70;;;21.60;99.90;;;;;;5052851;28;20156;-74
2023/06/19 09:37:33;;;;;;;3.85;2.00;;;21.50;99.90;;;;;;5053736;28;20025;-73
2023/06/19 09:40:01;;;;;;;3.53;1.80;;;21.60;99.90;;;;;;5053607;28;20056;-73
2023/06/19 09:42:34;;;;;;;3.45;1.77;;;21.70;99.90;;;;;;5051822;28;20029;-73
2023/06/19 09:45:06;;;;;;;3.88;1.70;;;21.70;99.90;;;;;;5053719;28;20466;-73
2023/06/19 09:47:46;;;;;;;3.45;1.90;;;21.90;99.90;;;;;;5053726;28;20021;-73
2023/06/19 09:50:13;;;;;;;2.95;1.80;;;22.00;99.90;;;;;;5052599;28;20462;-73
2023/06/19 09:52:41;;;;;;;4.75;2.03;;;22.10;99.90;;;;;;5053601;28;20470;-73
2023/06/19 09:55:09;;;;;;;3.70;1.80;;;22.30;99.90;;;;;;5052322;28;20029;-73
2023/06/19 09:57:37;;;;;;;4.70;2.00;;;22.50;99.90;;;;;;5052519;28;20032;-73
2023/06/19 10:00:12;;;;;;;4.50;1.70;;;22.50;99.90;;;;;;5052742;28;20454;-75
2023/06/19 10:02:40;;;;;;;3.65;2.05;;;22.40;99.90;;;;;;5052868;28;20036;-73
2023/06/19 10:05:12;;;;;;;6.90;2.03;;;22.30;99.90;;;;;;5052039;28;20048;-74
2023/06/19 10:07:40;;;;;;;7.10;1.92;;;22.10;99.90;;;;;;5052292;28;20044;-72
2023/06/19 10:10:08;;;;;;;7.57;2.25;;;21.90;99.90;;;;;;5051554;28;20108;-74
2023/06/19 10:12:47;;;;;;;4.35;1.90;;;22.00;99.90;;;;;;5052056;28;20048;-73
2023/06/19 10:15:19;;;;;;;4.80;1.85;;;21.90;99.90;;;;;;5050082;28;20397;-73
2023/06/19 10:17:46;;;;;;;;;;;21.80;99.90;;;;;;5052342;28;20017;-73
2023/06/19 10:20:39;;;;;;;4.18;2.00;;;21.90;99.90;;;;;;5049733;28;19923;-74
2023/06/19 10:23:12;;;;;;;3.58;1.80;;;22.10;99.90;;;;;;5049671;28;20037;-75
2023/06/19 10:25:43;;;;;;;2.63;2.20;;;22.10;99.90;;;;;;5051654;28;20532;-73
2023/06/19 10:28:19;;;;;;;3.55;1.63;;;22.00;99.90;;;;;;5050909;28;20049;-73
2023/06/19 10:30:45;;;;;;;3.65;1.80;;;22.00;99.90;;;;;;5051541;28;20509;-73
2023/06/19 10:33:11;;;;;;;3.80;1.55;;;22.00;99.90;;;;;;5051272;28;20033;-73
2023/06/19 10:35:40;;;;;;;3.92;1.90;;;22.10;99.90;;;;;;5051561;28;20087;-73
2023/06/19 10:38:10;;;;;;;2.55;1.58;;;22.20;99.90;;;;;;5051349;28;20135;-75
2023/06/19 10:40:39;;;;;;;3.28;2.00;;;22.30;99.90;;;;;;5049797;28;20078;-73
2023/06/19 10:43:05;;;;;;;8.82;2.70;;;22.40;99.90;;;;;;5050594;28;20029;-75
2023/06/19 10:45:31;;;;;;;5.50;1.80;;;22.60;99.90;;;;;;5050750;28;20032;-74
2023/06/19 10:47:57;;;;;;;3.95;1.42;;;22.60;99.90;;;;;;5050866;28;20338;-73
2023/06/19 10:50:25;;;;;;;9.55;1.80;;;22.50;99.90;;;;;;5050255;28;20374;-73
2023/06/19 10:52:54;;;;;;;11.13;1.67;;;22.70;99.90;;;;;;5050376;28;20040;-73
2023/06/19 10:55:21;;;;;;;2.75;1.85;;;22.90;99.90;;;;;;5050799;28;20032;-73
2023/06/19 10:57:48;;;;;;;9.95;2.03;;;23.00;99.90;;;;;;5050762;28;20102;-73
2023/06/19 11:00:24;;;;;;;2.95;1.75;;;23.00;99.90;;;;;;5050529;28;20039;-73
2023/06/19 11:02:49;;;;;;;3.28;1.52;;;22.80;99.90;;;;;;5050808;28;20469;-73
2023/06/19 11:05:15;;;;;;;2.88;1.30;;;22.80;99.90;;;;;;5050636;28;20021;-73
2023/06/19 11:07:42;;;;;;;5.03;1.52;;;22.80;99.90;;;;;;5050929;28;20109;-73
2023/06/19 11:10:18;;;;;;;4.57;1.30;;;22.90;99.90;;;;;;5050323;28;20485;-75
2023/06/19 11:12:44;;;;;;;2.05;1.30;;;23.00;99.90;;;;;;5050816;28;20108;-73
2023/06/19 11:15:10;;;;;;;2.65;1.52;;;23.00;99.90;;;;;;5050004;28;20112;-75
2023/06/19 11:17:36;;;;;;;3.17;1.50;;;23.00;99.90;;;;;;5050836;28;20029;-73
2023/06/19 11:20:05;;;;;;;3.83;1.40;;;23.00;99.90;;;;;;5050811;28;20127;-73
2023/06/19 11:22:38;;;;;;;3.28;1.50;;;22.70;99.90;;;;;;5050339;28;20035;-73
2023/06/19 11:25:05;;;;;;;5.38;1.60;;;22.80;99.90;;;;;;5048923;28;20522;-73
2023/06/19 11:27:31;;;;;;;3.47;1.45;;;22.90;99.90;;;;;;5049437;28;20056;-73
2023/06/19 11:29:58;;;;;;;2.00;1.58;;;23.10;99.90;;;;;;5049971;28;20203;-73
2023/06/19 11:32:34;;;;;;;2.13;1.60;;;23.20;99.90;;;;;;5049933;28;20059;-74
2023/06/19 11:35:07;;;;;;;2.60;1.40;;;23.30;99.90;;;;;;5049026;28;20100;-73
2023/06/19 11:37:34;;;;;;;2.95;1.60;;;23.40;99.90;;;;;;5049614;28;20037;-73
2023/06/19 11:40:00;;;;;;;3.08;1.50;;;23.50;99.90;;;;;;5050398;28;20029;-73
2023/06/19 11:42:26;;;;;;;3.03;1.95;;;23.60;99.90;;;;;;5049196;28;20036;-73
2023/06/19 11:45:06;;;;;;;3.17;1.80;;;23.60;99.90;;;;;;5049806;28;20024;-73
2023/06/19 11:47:36;;;;;;;6.32;1.98;;;23.60;99.90;;;;;;5049403;28;20033;-73
2023/06/19 11:50:04;;;;;;;3.05;1.60;;;23.60;99.90;;;;;;5048224;28;20065;-73
2023/06/19 11:52:30;;;;;;;3.28;1.70;;;23.60;99.90;;;;;;5049297;28;20639;-73
2023/06/19 11:54:56;;;;;;;7.10;2.13;;;23.40;99.90;;;;;;5049436;28;20128;-73
2023/06/19 11:57:21;;;;;;;4.90;2.05;;;23.40;99.90;;;;;;5049230;28;20116;-74
2023/06/19 11:59:47;;;;;;;3.33;1.85;;;23.40;99.90;;;;;;5050110;28;20062;-73
2023/06/19 12:02:13;;;;;;;4.47;1.80;;;23.20;99.90;;;;;;5047946;28;20063;-75
2023/06/19 12:04:39;;;;;;;2.80;1.63;;;22.90;99.90;;;;;;5049334;28;20029;-73
2023/06/19 12:07:05;;;;;;;5.05;2.20;;;22.70;99.90;;;;;;5049557;28;20063;-72
2023/06/19 12:09:31;;;;;;;3.20;1.75;;;22.60;99.90;;;;;;5048398;28;20135;-72
2023/06/19 12:11:58;;;;;;;5.05;2.20;;;22.60;99.90;;;;;;5049601;28;20124;-72
2023/06/19 12:14:24;;;;;;;3.72;1.85;;;22.70;99.90;;;;;;5048911;28;20033;-72
2023/06/19 12:16:50;;;;;;;3.53;1.30;;;22.90;99.90;;;;;;5049529;28;20112;-72
2023/06/19 12:19:16;;;;;;;3.42;1.70;;;23.00;99.90;;;;;;5049095;28;20051;-72
2023/06/19 12:21:42;;;;;;;3.88;2.00;;;23.00;99.90;;;;;;5049380;28;20074;-72
2023/06/19 12:24:08;;;;;;;2.95;1.90;;;23.10;99.90;;;;;;5049624;28;20095;-72
2023/06/19 12:26:37;;;;;;;3.90;1.80;;;23.20;99.90;;;;;;5048554;28;20071;-72
2023/06/19 12:29:04;;;;;;;3.63;1.67;;;23.30;99.90;;;;;;5049373;28;20036;-72
2023/06/19 12:31:30;;;;;;;7.10;1.90;;;23.40;99.90;;;;;;5048903;28;20040;-72
2023/06/19 12:33:56;;;;;;;6.78;1.75;;;23.40;99.90;;;;;;5049267;28;20029;-72
2023/06/19 12:36:22;;;;;;;10.02;2.40;;;23.40;99.90;;;;;;5049098;28;20431;-72
2023/06/19 12:38:48;;;;;;;2.03;1.50;;;23.40;99.90;;;;;;5049538;28;20040;-72
2023/06/19 12:41:15;;;;;;;3.33;1.58;;;23.30;99.90;;;;;;5048852;28;20029;-75
2023/06/19 12:43:41;;;;;;;2.80;1.30;;;23.30;99.90;;;;;;5049211;28;20103;-73
2023/06/19 12:46:07;;;;;;;3.75;1.92;;;23.30;99.90;;;;;;5049254;28;20112;-72